createdAt,value
2017-11-22T09:32:56.599Z,55
2017-11-22T09:33:18.047Z,50
2017-11-22T09:33:38.723Z,50
2017-11-22T09:33:59.389Z,45
2017-11-22T09:34:19.968Z,45
2017-11-22T09:34:43.244Z,45
2017-11-22T09:35:04.760Z,45
2017-11-22T09:35:27.309Z,40
2017-11-22T09:35:47.751Z,40
2017-11-22T09:36:09.131Z,40
2017-11-22T09:36:29.790Z,35
2017-11-22T09:36:52.071Z,35
2017-11-22T09:37:13.719Z,35
2017-11-22T09:37:34.418Z,35
2017-11-22T09:37:55.164Z,35
2017-11-22T09:38:15.823Z,35
2017-11-22T09:38:39.207Z,35
2017-11-22T09:39:00.561Z,35
2017-11-22T09:39:21.313Z,35
2017-11-22T09:39:42.750Z,35
2017-11-22T09:40:03.169Z,35
2017-11-22T09:40:23.842Z,35
2017-11-22T09:40:44.480Z,35
2017-11-22T09:41:05.638Z,35
2017-11-22T09:41:27.593Z,35
2017-11-22T09:41:49.107Z,35
2017-11-22T09:42:09.736Z,35
2017-11-22T09:42:31.092Z,35
2017-11-22T09:42:52.581Z,35
2017-11-22T09:43:13.252Z,35
2017-11-22T09:43:35.631Z,35
2017-11-22T09:43:57.203Z,40
2017-11-22T09:44:17.884Z,35
2017-11-22T09:44:39.240Z,35
2017-11-22T09:44:59.666Z,35
2017-11-22T09:45:21.249Z,35
2017-11-22T09:45:42.038Z,35
2017-11-22T09:46:03.235Z,35
2017-11-22T09:46:23.868Z,35
2017-11-22T09:46:45.054Z,35
2017-11-22T09:47:06.062Z,35
2017-11-22T09:47:26.726Z,35
2017-11-22T09:47:48.216Z,40
2017-11-22T09:48:08.499Z,40
2017-11-22T09:48:28.982Z,40
2017-11-22T09:48:49.954Z,45
2017-11-22T09:49:11.107Z,45
2017-11-22T09:49:33.181Z,45
2017-11-22T09:49:54.360Z,45
2017-11-22T09:50:15.174Z,45
2017-11-22T09:50:35.871Z,45
2017-11-22T09:50:56.550Z,50
2017-11-22T09:51:17.748Z,50
2017-11-22T09:51:38.686Z,55
2017-11-22T09:51:59.177Z,55
2017-11-22T09:52:19.753Z,55
2017-11-22T09:52:41.335Z,55
2017-11-22T09:53:01.914Z,50
2017-11-22T09:53:22.467Z,50
2017-11-22T09:53:43.590Z,50
2017-11-22T09:54:04.227Z,50
2017-11-22T09:54:24.769Z,50
2017-11-22T09:54:46.667Z,50
2017-11-22T09:55:07.436Z,50
2017-11-22T09:55:28.369Z,55
2017-11-22T09:55:49.623Z,55
2017-11-22T09:56:10.293Z,50
2017-11-22T09:56:31.266Z,55
2017-11-22T09:56:51.690Z,55
2017-11-22T09:57:16.641Z,55
2017-11-22T09:57:39.228Z,60
2017-11-22T09:58:00.589Z,60
2017-11-22T09:58:22.775Z,60
2017-11-22T09:58:43.827Z,65
2017-11-22T09:59:04.355Z,65
2017-11-22T09:59:25.482Z,65
2017-11-22T09:59:48.071Z,65
2017-11-22T10:00:09.192Z,70
2017-11-22T10:00:29.693Z,70
2017-11-22T10:00:52.650Z,70
2017-11-22T10:01:12.917Z,70
2017-11-22T10:01:35.677Z,70
2017-11-22T10:01:56.174Z,70
2017-11-22T10:02:17.559Z,70
2017-11-22T10:02:38.963Z,65
2017-11-22T10:02:59.582Z,65
2017-11-22T10:03:19.724Z,65
2017-11-22T10:03:41.691Z,65
2017-11-22T10:04:04.531Z,65
2017-11-22T10:04:27.152Z,65
2017-11-22T10:04:49.666Z,65
2017-11-22T10:05:11.260Z,70
2017-11-22T10:05:32.746Z,70
2017-11-22T10:05:53.431Z,70
2017-11-22T10:06:17.692Z,70
2017-11-22T10:06:39.116Z,70
2017-11-22T10:06:59.642Z,70
2017-11-22T10:07:21.000Z,70
2017-11-22T10:07:42.650Z,70
2017-11-22T10:08:03.634Z,70
2017-11-22T10:08:25.117Z,75
2017-11-22T10:08:49.189Z,75
2017-11-22T10:09:10.719Z,75
2017-11-22T10:09:35.631Z,85
2017-11-22T10:09:59.636Z,85
2017-11-22T10:10:20.623Z,90
2017-11-22T10:10:43.060Z,85
2017-11-22T10:11:04.158Z,85
2017-11-22T10:11:26.201Z,90
2017-11-22T10:11:48.241Z,90
2017-11-22T10:12:10.695Z,90
2017-11-22T10:12:31.258Z,85
2017-11-22T10:12:54.108Z,85
2017-11-22T10:13:17.722Z,80
2017-11-22T10:13:38.027Z,80
2017-11-22T10:13:59.787Z,75
2017-11-22T10:14:20.588Z,75
2017-11-22T10:14:43.235Z,70
2017-11-22T10:15:04.705Z,70
2017-11-22T10:15:27.678Z,70
2017-11-22T10:15:48.155Z,70
2017-11-22T10:16:10.184Z,70
2017-11-22T10:16:32.662Z,65
2017-11-22T10:16:54.650Z,65
2017-11-22T10:17:15.232Z,65
2017-11-22T10:17:37.114Z,70
2017-11-22T10:17:57.674Z,70
2017-11-22T10:18:18.871Z,70
2017-11-22T10:18:40.451Z,70
2017-11-22T10:19:01.119Z,65
2017-11-22T10:19:21.851Z,65
2017-11-22T10:19:42.452Z,65
2017-11-22T10:20:03.595Z,65
2017-11-22T10:20:26.795Z,60
2017-11-22T10:20:49.095Z,60
2017-11-22T10:21:10.720Z,60
2017-11-22T10:21:31.268Z,60
2017-11-22T10:21:53.036Z,55
2017-11-22T10:22:16.107Z,55
2017-11-22T10:22:38.830Z,55
2017-11-22T10:23:02.893Z,55
2017-11-22T10:23:24.176Z,55
2017-11-22T10:23:45.271Z,55
2017-11-22T10:24:05.849Z,55
2017-11-22T10:24:27.319Z,55
2017-11-22T10:24:48.668Z,50
2017-11-22T10:25:09.167Z,50
2017-11-22T10:25:29.737Z,55
2017-11-22T10:25:50.440Z,55
2017-11-22T10:26:12.486Z,55
2017-11-22T10:26:33.677Z,55
2017-11-22T10:26:54.465Z,55
2017-11-22T10:27:14.962Z,55
2017-11-22T10:27:36.170Z,55
2017-11-22T10:27:58.668Z,55
2017-11-22T10:28:20.112Z,55
2017-11-22T10:28:43.670Z,55
2017-11-22T10:29:04.923Z,55
2017-11-22T10:29:26.016Z,60
2017-11-22T10:29:46.258Z,60
2017-11-22T10:30:07.241Z,60
2017-11-22T10:30:29.664Z,60
2017-11-22T10:30:51.300Z,60
2017-11-22T10:31:12.184Z,60
2017-11-22T10:31:32.872Z,60
2017-11-22T10:31:54.001Z,55
2017-11-22T10:32:15.713Z,55
2017-11-22T10:32:38.155Z,55
2017-11-22T10:33:03.632Z,55
2017-11-22T10:33:24.631Z,55
2017-11-22T10:33:48.400Z,55
2017-11-22T10:34:09.143Z,55
2017-11-22T10:34:29.891Z,55
2017-11-22T10:34:50.452Z,55
2017-11-22T10:35:11.292Z,55
2017-11-22T10:35:34.557Z,55
2017-11-22T10:35:56.214Z,55
2017-11-22T10:36:19.130Z,60
2017-11-22T10:36:40.517Z,60
2017-11-22T10:37:01.151Z,60
2017-11-22T10:37:21.843Z,60
2017-11-22T10:37:42.446Z,65
2017-11-22T10:38:03.151Z,65
2017-11-22T10:38:23.728Z,65
2017-11-22T10:38:44.274Z,65
2017-11-22T10:39:06.655Z,65
2017-11-22T10:39:28.639Z,60
2017-11-22T10:39:49.552Z,60
2017-11-22T10:40:11.254Z,60
2017-11-22T10:40:32.213Z,60
2017-11-22T10:40:52.957Z,60
2017-11-22T10:41:14.142Z,60
2017-11-22T10:41:35.128Z,60
2017-11-22T10:41:56.177Z,60
2017-11-22T10:42:17.772Z,55
2017-11-22T10:42:38.438Z,55
2017-11-22T10:42:59.154Z,55
2017-11-22T10:43:20.752Z,55
2017-11-22T10:43:41.348Z,55
2017-11-22T10:44:03.023Z,55
2017-11-22T10:44:24.081Z,55
2017-11-22T10:44:45.687Z,55
2017-11-22T10:45:06.139Z,55
2017-11-22T10:45:26.353Z,55
2017-11-22T10:45:46.592Z,55
2017-11-22T10:46:06.818Z,55
2017-11-22T10:46:27.046Z,60
2017-11-22T10:46:47.261Z,60
2017-11-22T10:47:07.495Z,60
2017-11-22T10:47:27.728Z,60
2017-11-22T10:47:47.944Z,60
2017-11-22T10:48:08.170Z,60
2017-11-22T10:48:28.386Z,60
2017-11-22T10:48:49.161Z,60
2017-11-22T10:49:09.383Z,60
2017-11-22T10:49:29.976Z,60
2017-11-22T10:49:50.201Z,60
2017-11-22T10:50:10.421Z,60
2017-11-22T10:50:30.648Z,60
2017-11-22T10:50:50.911Z,60
2017-11-22T10:51:11.178Z,60
2017-11-22T10:51:31.414Z,60
2017-11-22T10:51:51.645Z,60
2017-11-22T10:52:11.850Z,60
2017-11-22T10:52:32.063Z,55
2017-11-22T10:52:52.297Z,55
2017-11-22T10:53:12.526Z,55
2017-11-22T10:53:32.761Z,55
2017-11-22T10:53:52.992Z,55
2017-11-22T10:54:13.230Z,55
2017-11-22T10:54:33.440Z,55
2017-11-22T10:54:53.667Z,55
2017-11-22T10:55:13.891Z,55
2017-11-22T10:55:34.106Z,55
2017-11-22T10:55:54.326Z,55
2017-11-22T10:56:14.561Z,55
2017-11-22T10:56:34.778Z,55
2017-11-22T10:56:55.003Z,55
2017-11-22T10:57:15.243Z,55
2017-11-22T10:57:35.467Z,55
2017-11-22T10:57:55.689Z,55
2017-11-22T10:58:15.910Z,55
2017-11-22T10:58:36.289Z,55
2017-11-22T10:58:56.526Z,55
2017-11-22T10:59:16.766Z,55
2017-11-22T10:59:36.997Z,55
2017-11-22T10:59:57.930Z,55
2017-11-22T11:00:18.139Z,55
2017-11-22T11:00:38.359Z,55
2017-11-22T11:00:58.578Z,55
2017-11-22T11:01:18.818Z,55
2017-11-22T11:01:39.046Z,60
2017-11-22T11:01:59.288Z,60
2017-11-22T11:02:19.671Z,60
2017-11-22T11:02:42.198Z,60
2017-11-22T11:03:02.906Z,60
2017-11-22T11:03:23.294Z,60
2017-11-22T11:03:43.519Z,60
2017-11-22T11:04:03.738Z,60
2017-11-22T11:04:24.524Z,60
2017-11-22T11:04:44.748Z,60
2017-11-22T11:05:06.649Z,60
2017-11-22T11:05:27.617Z,60
2017-11-22T11:05:48.207Z,60
2017-11-22T11:06:08.477Z,60
2017-11-22T11:06:29.525Z,60
2017-11-22T11:06:50.600Z,60
2017-11-22T11:07:10.940Z,60
2017-11-22T11:07:31.205Z,60
2017-11-22T11:07:52.671Z,60
2017-11-22T11:08:13.567Z,60
2017-11-22T11:08:34.503Z,60
2017-11-22T11:08:54.794Z,60
2017-11-22T11:09:15.091Z,60
2017-11-22T11:09:35.343Z,60
2017-11-22T11:09:55.601Z,60
2017-11-22T11:10:15.923Z,60
2017-11-22T11:10:36.297Z,55
2017-11-22T11:10:58.184Z,55
2017-11-22T11:11:19.142Z,55
2017-11-22T11:11:39.453Z,55
2017-11-22T11:11:59.684Z,55
2017-11-22T11:12:19.724Z,55
2017-11-22T11:12:40.928Z,55
2017-11-22T11:13:01.240Z,60
2017-11-22T11:13:21.526Z,60
2017-11-22T11:13:41.784Z,60
2017-11-22T11:14:02.001Z,60
2017-11-22T11:14:22.230Z,60
2017-11-22T11:14:42.464Z,60
2017-11-22T11:15:02.685Z,60
2017-11-22T11:15:22.909Z,60
2017-11-22T11:15:43.135Z,60
2017-11-22T11:16:03.356Z,60
2017-11-22T11:16:23.571Z,55
2017-11-22T11:16:43.809Z,60
2017-11-22T11:17:04.029Z,60
2017-11-22T11:17:24.264Z,60
2017-11-22T11:17:44.565Z,60
2017-11-22T11:18:05.188Z,65
2017-11-22T11:18:25.399Z,65
2017-11-22T11:18:45.639Z,70
2017-11-22T11:19:05.867Z,70
2017-11-22T11:19:26.092Z,70
2017-11-22T11:19:46.328Z,75
2017-11-22T11:20:06.549Z,75
2017-11-22T11:20:26.785Z,70
2017-11-22T11:20:46.995Z,70
2017-11-22T11:21:07.219Z,70
2017-11-22T11:21:27.442Z,70
2017-11-22T11:21:47.678Z,70
2017-11-22T11:22:07.907Z,70
2017-11-22T11:22:28.131Z,70
2017-11-22T11:22:48.351Z,70
2017-11-22T11:23:08.560Z,75
2017-11-22T11:23:28.800Z,75
2017-11-22T11:23:49.014Z,75
2017-11-22T11:24:09.241Z,80
2017-11-22T11:24:29.480Z,80
2017-11-22T11:24:49.708Z,80
2017-11-22T11:25:09.945Z,80
2017-11-22T11:25:30.165Z,80
2017-11-22T11:25:50.384Z,80
2017-11-22T11:26:10.604Z,85
2017-11-22T11:26:30.832Z,80
2017-11-22T11:26:51.053Z,85
2017-11-22T11:27:11.279Z,80
2017-11-22T11:27:31.500Z,80
2017-11-22T11:27:51.741Z,80
2017-11-22T11:28:11.969Z,85
2017-11-22T11:28:32.184Z,85
2017-11-22T11:28:52.655Z,85
2017-11-22T11:29:12.875Z,85
2017-11-22T11:29:33.101Z,85
2017-11-22T11:29:53.329Z,85
2017-11-22T11:30:13.558Z,85
2017-11-22T11:30:33.802Z,80
2017-11-22T11:30:54.041Z,80
2017-11-22T11:31:14.261Z,75
2017-11-22T11:31:34.477Z,75
2017-11-22T11:31:54.708Z,70
2017-11-22T11:32:14.959Z,65
2017-11-22T11:32:35.173Z,60
2017-11-22T11:32:55.382Z,60
2017-11-22T11:33:15.603Z,60
2017-11-22T11:33:35.827Z,55
2017-11-22T11:33:56.058Z,55
2017-11-22T11:34:16.290Z,55
2017-11-22T11:34:36.511Z,55
2017-11-22T11:34:56.747Z,55
2017-11-22T11:35:16.974Z,55
2017-11-22T11:35:37.194Z,55
2017-11-22T11:35:57.424Z,55
2017-11-22T11:36:17.674Z,55
2017-11-22T11:36:37.894Z,55
2017-11-22T11:36:58.118Z,55
2017-11-22T11:37:18.344Z,55
2017-11-22T11:37:38.579Z,55
2017-11-22T11:37:58.809Z,55
2017-11-22T11:38:19.032Z,55
2017-11-22T11:38:39.255Z,55
2017-11-22T11:38:59.505Z,55
2017-11-22T11:39:19.726Z,55
2017-11-22T11:39:39.968Z,55
2017-11-22T11:40:00.932Z,55
2017-11-22T11:40:21.156Z,55
2017-11-22T11:40:41.358Z,55
2017-11-22T11:41:01.588Z,55
2017-11-22T11:41:21.810Z,50
2017-11-22T11:41:42.058Z,50
2017-11-22T11:42:02.282Z,50
2017-11-22T11:42:22.495Z,50
2017-11-22T11:42:42.725Z,50
2017-11-22T11:43:02.949Z,50
2017-11-22T11:43:23.175Z,50
2017-11-22T11:43:43.397Z,50
2017-11-22T11:44:03.639Z,50
2017-11-22T11:44:23.863Z,50
2017-11-22T11:44:44.096Z,50
2017-11-22T11:45:04.320Z,50
2017-11-22T11:45:24.540Z,50
2017-11-22T11:45:44.770Z,50
2017-11-22T11:46:05.001Z,50
2017-11-22T11:46:25.218Z,50
2017-11-22T11:46:45.444Z,50
2017-11-22T11:47:05.903Z,50
2017-11-22T11:47:26.118Z,50
2017-11-22T11:47:46.348Z,50
2017-11-22T11:48:06.579Z,50
2017-11-22T11:48:26.813Z,50
2017-11-22T11:48:47.031Z,50
2017-11-22T11:49:07.249Z,50
2017-11-22T11:49:27.466Z,50
2017-11-22T11:49:47.685Z,55
2017-11-22T11:50:07.900Z,55
2017-11-22T11:50:28.124Z,55
2017-11-22T11:50:48.361Z,55
2017-11-22T11:51:08.573Z,55
2017-11-22T11:51:28.805Z,55
2017-11-22T11:51:49.023Z,55
2017-11-22T11:52:09.258Z,55
2017-11-22T11:52:29.469Z,55
2017-11-22T11:52:49.696Z,55
2017-11-22T11:53:09.914Z,55
2017-11-22T11:53:30.144Z,55
2017-11-22T11:53:50.369Z,55
2017-11-22T11:54:10.597Z,55
2017-11-22T11:54:30.844Z,55
2017-11-22T11:54:51.061Z,55
2017-11-22T11:55:11.278Z,55
2017-11-22T11:55:31.514Z,60
2017-11-22T11:55:51.739Z,60
2017-11-22T11:56:11.990Z,60
2017-11-22T11:56:32.227Z,60
2017-11-22T11:56:52.468Z,60
2017-11-22T11:57:12.699Z,60
2017-11-22T11:57:32.933Z,60
2017-11-22T11:57:53.160Z,60
2017-11-22T11:58:13.384Z,60
2017-11-22T11:58:33.600Z,60
2017-11-22T11:58:53.833Z,60
2017-11-22T11:59:14.052Z,60
2017-11-22T11:59:34.285Z,60
2017-11-22T11:59:54.562Z,60
2017-11-22T12:00:14.779Z,60
2017-11-22T12:00:35.016Z,60
2017-11-22T12:00:55.242Z,60
2017-11-22T12:01:15.989Z,65
2017-11-22T12:01:36.211Z,65
2017-11-22T12:01:56.477Z,65
2017-11-22T12:02:16.701Z,65
2017-11-22T12:02:36.954Z,65
2017-11-22T12:02:57.160Z,65
2017-11-22T12:03:17.384Z,65
2017-11-22T12:03:37.588Z,65
2017-11-22T12:03:57.818Z,65
2017-11-22T12:04:18.034Z,70
2017-11-22T12:04:38.275Z,70
2017-11-22T12:04:58.565Z,70
2017-11-22T12:05:18.811Z,70
2017-11-22T12:05:39.040Z,70
2017-11-22T12:05:59.278Z,65
2017-11-22T12:06:19.508Z,70
2017-11-22T12:06:39.730Z,70
2017-11-22T12:06:59.988Z,70
2017-11-22T12:07:20.220Z,70
2017-11-22T12:07:40.450Z,70
2017-11-22T12:08:00.683Z,70
2017-11-22T12:08:20.894Z,70
2017-11-22T12:08:41.115Z,70
2017-11-22T12:09:01.343Z,70
2017-11-22T12:09:21.593Z,70
2017-11-22T12:09:41.812Z,70
2017-11-22T12:10:02.028Z,70
2017-11-22T12:10:22.254Z,70
2017-11-22T12:10:42.470Z,70
2017-11-22T12:11:02.700Z,70
2017-11-22T12:11:22.928Z,70
2017-11-22T12:11:43.164Z,70
2017-11-22T12:12:03.398Z,70
2017-11-22T12:12:23.738Z,70
2017-11-22T12:12:43.974Z,70
2017-11-22T12:13:04.212Z,70
2017-11-22T12:13:24.422Z,70
2017-11-22T12:13:44.657Z,70
2017-11-22T12:14:04.880Z,65
2017-11-22T12:14:25.109Z,65
2017-11-22T12:14:45.348Z,65
2017-11-22T12:15:05.576Z,65
2017-11-22T12:15:25.795Z,65
2017-11-22T12:15:46.012Z,60
2017-11-22T12:16:06.232Z,60
2017-11-22T12:16:26.467Z,60
2017-11-22T12:16:46.704Z,60
2017-11-22T12:17:06.925Z,60
2017-11-22T12:17:27.138Z,60
2017-11-22T12:17:47.350Z,60
2017-11-22T12:18:07.582Z,60
2017-11-22T12:18:27.810Z,60
2017-11-22T12:18:47.991Z,60
2017-11-22T12:19:08.218Z,60
2017-11-22T12:19:28.426Z,60
2017-11-22T12:19:48.659Z,60
2017-11-22T12:20:08.887Z,55
2017-11-22T12:20:29.144Z,55
2017-11-22T12:20:49.385Z,55
2017-11-22T12:21:09.610Z,55
2017-11-22T12:21:29.849Z,55
2017-11-22T12:21:50.068Z,55
2017-11-22T12:22:10.296Z,50
2017-11-22T12:22:30.513Z,50
2017-11-22T12:22:50.722Z,50
2017-11-22T12:23:10.941Z,50
2017-11-22T12:23:31.167Z,50
2017-11-22T12:23:51.402Z,50
2017-11-22T12:24:11.629Z,50
2017-11-22T12:24:31.856Z,50
2017-11-22T12:24:52.075Z,50
2017-11-22T12:25:12.301Z,50
2017-11-22T12:25:32.519Z,50
2017-11-22T12:25:52.748Z,50
2017-11-22T12:26:12.970Z,50
2017-11-22T12:26:33.195Z,50
2017-11-22T12:26:53.435Z,50
2017-11-22T12:27:13.664Z,50
2017-11-22T12:27:33.896Z,50
2017-11-22T12:27:54.138Z,50
2017-11-22T12:28:14.364Z,50
2017-11-22T12:28:34.593Z,50
2017-11-22T12:28:54.807Z,50
2017-11-22T12:29:15.031Z,50
2017-11-22T12:29:35.264Z,50
2017-11-22T12:29:55.494Z,50
2017-11-22T12:30:15.718Z,50
2017-11-22T12:30:35.953Z,50
2017-11-22T12:30:56.173Z,50
2017-11-22T12:31:16.406Z,50
2017-11-22T12:31:36.721Z,50
2017-11-22T12:31:56.971Z,50
2017-11-22T12:32:17.191Z,50
2017-11-22T12:32:37.411Z,50
2017-11-22T12:32:57.655Z,50
2017-11-22T12:33:17.860Z,50
2017-11-22T12:33:38.077Z,50
2017-11-22T12:33:58.295Z,50
2017-11-22T12:34:18.517Z,50
2017-11-22T12:34:38.812Z,50
2017-11-22T12:34:59.048Z,50
2017-11-22T12:35:19.291Z,50
2017-11-22T12:35:39.513Z,50
2017-11-22T12:35:59.732Z,50
2017-11-22T12:36:19.963Z,50
2017-11-22T12:36:40.184Z,50
2017-11-22T12:37:00.396Z,50
2017-11-22T12:37:20.619Z,50
2017-11-22T12:37:40.847Z,50
2017-11-22T12:38:01.090Z,50
2017-11-22T12:38:21.302Z,50
2017-11-22T12:38:41.548Z,50
2017-11-22T12:39:01.782Z,50
2017-11-22T12:39:22.008Z,50
2017-11-22T12:39:42.227Z,50
2017-11-22T12:40:02.453Z,50
2017-11-22T12:40:22.671Z,50
2017-11-22T12:40:42.900Z,50
2017-11-22T12:41:03.135Z,50
2017-11-22T12:41:23.364Z,50
2017-11-22T12:41:43.587Z,50
2017-11-22T12:42:03.801Z,50
2017-11-22T12:42:24.031Z,45
2017-11-22T12:42:44.254Z,45
2017-11-22T12:43:04.478Z,45
2017-11-22T12:43:24.693Z,45
2017-11-22T12:43:44.932Z,50
2017-11-22T12:44:05.162Z,50
2017-11-22T12:44:25.397Z,50
2017-11-22T12:44:45.636Z,50
2017-11-22T12:45:05.861Z,50
2017-11-22T12:45:26.087Z,50
2017-11-22T12:45:46.323Z,50
2017-11-22T12:46:06.565Z,45
2017-11-22T12:46:26.795Z,45
2017-11-22T12:46:47.027Z,45
2017-11-22T12:47:08.258Z,45
2017-11-22T12:47:28.794Z,45
2017-11-22T12:47:49.273Z,50
2017-11-22T12:48:10.775Z,50
2017-11-22T12:48:31.181Z,50
2017-11-22T12:48:52.761Z,50
2017-11-22T12:49:14.265Z,50
2017-11-22T12:49:36.280Z,50
2017-11-22T12:49:57.011Z,50
2017-11-22T12:50:18.777Z,50
2017-11-22T12:50:39.483Z,50
2017-11-22T12:51:00.392Z,50
2017-11-22T12:51:20.966Z,50
2017-11-22T12:51:42.057Z,50
2017-11-22T12:52:03.262Z,50
2017-11-22T12:52:24.059Z,50
2017-11-22T12:52:44.681Z,50
2017-11-22T12:53:05.777Z,50
2017-11-22T12:53:26.207Z,50
2017-11-22T12:53:50.250Z,50
2017-11-22T12:54:11.786Z,50
2017-11-22T12:54:34.352Z,45
2017-11-22T12:54:54.881Z,45
2017-11-22T12:55:15.810Z,45
2017-11-22T12:55:36.525Z,45
2017-11-22T12:55:57.999Z,45
2017-11-22T12:56:19.167Z,45
2017-11-22T12:56:41.196Z,45
2017-11-22T12:57:02.811Z,45
2017-11-22T12:57:24.221Z,45
2017-11-22T12:57:45.877Z,45
2017-11-22T12:58:07.216Z,45
2017-11-22T12:58:29.263Z,45
2017-11-22T12:58:50.782Z,45
2017-11-22T12:59:11.385Z,45
2017-11-22T12:59:32.463Z,45
2017-11-22T12:59:53.072Z,45
2017-11-22T13:00:14.176Z,45
2017-11-22T13:00:35.724Z,45
2017-11-22T13:00:56.117Z,40
2017-11-22T13:01:16.631Z,40
2017-11-22T13:01:37.732Z,40
2017-11-22T13:01:58.414Z,40
2017-11-22T13:02:19.067Z,40
2017-11-22T13:02:39.617Z,40
2017-11-22T13:03:00.516Z,40
2017-11-22T13:03:21.154Z,40
2017-11-22T13:03:42.885Z,40
2017-11-22T13:04:03.895Z,40
2017-11-22T13:04:25.461Z,40
2017-11-22T13:04:46.041Z,40
2017-11-22T13:05:07.301Z,40
2017-11-22T13:05:28.139Z,40
2017-11-22T13:05:48.785Z,40
2017-11-22T13:06:10.054Z,40
2017-11-22T13:06:31.749Z,40
2017-11-22T13:06:52.494Z,40
2017-11-22T13:07:14.337Z,40
2017-11-22T13:07:35.361Z,40
2017-11-22T13:07:56.152Z,40
2017-11-22T13:08:23.853Z,40
2017-11-22T13:08:45.168Z,40
2017-11-22T13:09:06.466Z,40
2017-11-22T13:09:27.805Z,40
2017-11-22T13:09:48.300Z,40
2017-11-22T13:10:08.631Z,40
2017-11-22T13:10:29.806Z,40
2017-11-22T13:10:50.146Z,40
2017-11-22T13:11:10.387Z,45
2017-11-22T13:11:30.642Z,45
2017-11-22T13:11:50.878Z,45
2017-11-22T13:12:11.120Z,45
2017-11-22T13:12:31.366Z,45
2017-11-22T13:12:51.592Z,45
2017-11-22T13:13:11.814Z,45
2017-11-22T13:13:32.297Z,45
2017-11-22T13:13:52.536Z,45
2017-11-22T13:14:12.772Z,45
2017-11-22T13:14:33.058Z,45
2017-11-22T13:14:53.308Z,45
2017-11-22T13:15:13.531Z,50
2017-11-22T13:15:33.766Z,50
2017-11-22T13:15:54.006Z,50
2017-11-22T13:16:14.253Z,50
2017-11-22T13:16:34.491Z,50
2017-11-22T13:16:54.722Z,50
2017-11-22T13:17:14.986Z,50
2017-11-22T13:17:35.207Z,50
2017-11-22T13:17:55.440Z,50
2017-11-22T13:18:15.660Z,50
2017-11-22T13:18:36.002Z,50
2017-11-22T13:18:56.248Z,50
2017-11-22T13:19:16.468Z,50
2017-11-22T13:19:36.691Z,50
2017-11-22T13:19:56.946Z,50
2017-11-22T13:20:17.169Z,50
2017-11-22T13:20:37.413Z,50
2017-11-22T13:20:57.646Z,50
2017-11-22T13:21:17.874Z,50
2017-11-22T13:21:38.110Z,50
2017-11-22T13:21:58.420Z,50
2017-11-22T13:22:20.239Z,50
2017-11-22T13:22:41.541Z,50
2017-11-22T13:23:01.831Z,50
2017-11-22T13:23:22.104Z,50
2017-11-22T13:23:43.046Z,50
2017-11-22T13:24:03.284Z,50
2017-11-22T13:24:23.741Z,50
2017-11-22T13:24:43.960Z,45
2017-11-22T13:25:05.194Z,45
2017-11-22T13:25:26.174Z,45
2017-11-22T13:25:46.467Z,45
2017-11-22T13:26:06.791Z,45
2017-11-22T13:26:27.047Z,45
2017-11-22T13:26:47.309Z,45
2017-11-22T13:27:07.542Z,45
2017-11-22T13:27:27.783Z,45
2017-11-22T13:27:48.012Z,45
2017-11-22T13:28:08.267Z,45
2017-11-22T13:28:28.505Z,45
2017-11-22T13:28:48.720Z,45
2017-11-22T13:29:08.943Z,45
2017-11-22T13:29:29.166Z,45
2017-11-22T13:29:49.489Z,45
2017-11-22T13:30:09.790Z,45
2017-11-22T13:30:30.010Z,45
2017-11-22T13:30:50.302Z,45
2017-11-22T13:31:11.077Z,45
2017-11-22T13:31:31.713Z,45
2017-11-22T13:31:52.364Z,45
2017-11-22T13:32:13.034Z,45
2017-11-22T13:32:33.638Z,45
2017-11-22T13:32:54.149Z,45
2017-11-22T13:33:15.800Z,45
2017-11-22T13:33:37.243Z,45
2017-11-22T13:33:58.013Z,45
2017-11-22T13:34:19.250Z,45
2017-11-22T13:34:39.559Z,45
2017-11-22T13:35:00.823Z,45
2017-11-22T13:35:21.602Z,45
2017-11-22T13:35:42.849Z,45
2017-11-22T13:36:03.791Z,45
2017-11-22T13:36:24.226Z,45
2017-11-22T13:36:45.907Z,45
2017-11-22T13:37:06.473Z,45
2017-11-22T13:37:26.874Z,45
2017-11-22T13:37:47.377Z,40
2017-11-22T13:38:08.914Z,40
2017-11-22T13:38:30.300Z,40
2017-11-22T13:38:51.864Z,40
2017-11-22T13:39:12.575Z,40
2017-11-22T13:39:33.320Z,40
2017-11-22T13:39:56.294Z,40
2017-11-22T13:40:16.999Z,40
2017-11-22T13:40:37.612Z,40
2017-11-22T13:40:58.337Z,40
2017-11-22T13:41:21.702Z,40
2017-11-22T13:41:43.999Z,40
2017-11-22T13:42:05.275Z,40
2017-11-22T13:42:25.652Z,40
2017-11-22T13:42:46.074Z,40
2017-11-22T13:43:08.898Z,40
2017-11-22T13:43:31.157Z,40
2017-11-22T13:43:52.282Z,40
2017-11-22T13:44:12.530Z,40
2017-11-22T13:44:34.298Z,40
2017-11-22T13:44:54.972Z,40
2017-11-22T13:45:15.433Z,40
2017-11-22T13:45:35.964Z,40
2017-11-22T13:45:57.038Z,40
2017-11-22T13:46:18.265Z,40
2017-11-22T13:46:39.613Z,40
2017-11-22T13:47:00.073Z,40
2017-11-22T13:47:20.791Z,40
2017-11-22T13:47:41.173Z,40
2017-11-22T13:48:01.766Z,40
2017-11-22T13:48:22.439Z,40
2017-11-22T13:48:45.278Z,40
2017-11-22T13:49:06.423Z,40
2017-11-22T13:49:27.360Z,40
2017-11-22T13:49:48.957Z,40
2017-11-22T13:50:09.994Z,40
2017-11-22T13:50:30.480Z,40
2017-11-22T13:50:51.150Z,40
2017-11-22T13:51:11.863Z,40
2017-11-22T13:51:32.326Z,40
2017-11-22T13:51:53.359Z,40
2017-11-22T13:52:14.206Z,40
2017-11-22T13:52:37.767Z,40
2017-11-22T13:53:01.472Z,40
2017-11-22T13:53:23.839Z,35
2017-11-22T13:53:45.714Z,35
2017-11-22T13:54:09.138Z,35
2017-11-22T13:54:31.817Z,35
2017-11-22T13:54:54.600Z,35
2017-11-22T13:55:16.321Z,35
2017-11-22T13:55:38.120Z,35
2017-11-22T13:56:00.808Z,35
2017-11-22T13:56:22.599Z,35
2017-11-22T13:56:44.101Z,35
2017-11-22T13:57:06.842Z,35
2017-11-22T13:57:28.702Z,35
2017-11-22T13:57:50.602Z,35
2017-11-22T13:58:12.454Z,35
2017-11-22T13:58:36.914Z,35
2017-11-22T13:58:58.709Z,35
2017-11-22T13:59:19.938Z,35
2017-11-22T13:59:41.827Z,35
2017-11-22T14:00:02.438Z,35
2017-11-22T14:00:23.907Z,35
2017-11-22T14:00:45.993Z,35
2017-11-22T14:01:06.614Z,35
2017-11-22T14:01:27.867Z,35
2017-11-22T14:01:48.615Z,35
2017-11-22T14:02:09.204Z,35
2017-11-22T14:02:29.926Z,35
2017-11-22T14:02:51.421Z,35
2017-11-22T14:03:12.098Z,30
2017-11-22T14:03:32.543Z,30
2017-11-22T14:03:52.856Z,30
2017-11-22T14:04:14.402Z,30
2017-11-22T14:04:35.183Z,30
2017-11-22T14:04:56.056Z,30
2017-11-22T14:05:19.872Z,30
2017-11-22T14:05:40.599Z,30
2017-11-22T14:06:01.384Z,30
2017-11-22T14:06:22.123Z,30
2017-11-22T14:06:43.231Z,30
2017-11-22T14:07:05.895Z,30
2017-11-22T14:07:26.347Z,30
2017-11-22T14:07:46.892Z,30
2017-11-22T14:08:08.269Z,30
2017-11-22T14:08:29.344Z,30
2017-11-22T14:08:49.661Z,30
2017-11-22T14:09:11.762Z,30
2017-11-22T14:09:33.312Z,30
2017-11-22T14:09:53.658Z,25
2017-11-22T14:10:14.096Z,25
2017-11-22T14:10:36.248Z,25
2017-11-22T14:10:56.804Z,25
2017-11-22T14:11:17.357Z,25
2017-11-22T14:11:39.865Z,25
2017-11-22T14:12:00.482Z,25
2017-11-22T14:12:21.101Z,25
2017-11-22T14:12:41.772Z,25
2017-11-22T14:13:03.315Z,25
2017-11-22T14:13:24.130Z,25
2017-11-22T14:13:46.332Z,25
2017-11-22T14:14:06.767Z,25
2017-11-22T14:14:28.334Z,20
2017-11-22T14:14:49.868Z,20
2017-11-22T14:15:10.649Z,20
2017-11-22T14:15:31.260Z,20
2017-11-22T14:15:51.636Z,20
2017-11-22T14:16:11.922Z,20
2017-11-22T14:16:32.457Z,20
2017-11-22T14:16:52.686Z,20
2017-11-22T14:17:12.908Z,20
2017-11-22T14:17:33.152Z,20
2017-11-22T14:17:53.438Z,20
2017-11-22T14:18:13.686Z,20
2017-11-22T14:18:33.916Z,20
2017-11-22T14:18:54.168Z,20
2017-11-22T14:19:14.394Z,20
2017-11-22T14:19:34.633Z,20
2017-11-22T14:19:54.856Z,20
2017-11-22T14:20:15.064Z,20
2017-11-22T14:20:35.297Z,20
2017-11-22T14:20:55.532Z,15
2017-11-22T14:21:15.772Z,15
2017-11-22T14:21:36.004Z,15
2017-11-22T14:21:56.240Z,15
2017-11-22T14:22:16.458Z,15
2017-11-22T14:22:36.675Z,15
2017-11-22T14:22:56.899Z,15
2017-11-22T14:23:17.125Z,15
2017-11-22T14:23:37.360Z,15
2017-11-22T14:23:57.588Z,15
2017-11-22T14:24:17.811Z,15
2017-11-22T14:24:38.048Z,15
2017-11-22T14:24:58.275Z,15
2017-11-22T14:25:18.498Z,15
2017-11-22T14:25:38.775Z,15
2017-11-22T14:25:59.013Z,15
2017-11-22T14:26:19.250Z,15
2017-11-22T14:26:39.463Z,15
2017-11-22T14:26:59.701Z,15
2017-11-22T14:27:19.928Z,15
2017-11-22T14:27:40.148Z,15
2017-11-22T14:28:00.372Z,15
2017-11-22T14:28:20.607Z,15
2017-11-22T14:28:40.818Z,15
2017-11-22T14:29:01.055Z,15